Time;durP1;ratioP1;P1;durP2;ratioP2;P2;SDS_P1;SDS_P2;PMS_P1;PMS_P2;Temp;Humidity;BMP_temperature;BMP_pressure;BME280_temperature;BME280_humidity;BME280_pressure;Samples;Min_cycle;Max_cycle;Signal;HPM_P1;HPM_P2
2022/06/08 00:02:41;;;;;;;9.55;8.27;;;19.80;99.90;;;;;;5060265;28;20924;-74
2022/06/08 00:05:29;;;;;;;10.18;8.50;;;19.70;99.90;;;;;;5077682;28;20223;-76
2022/06/08 00:08:19;;;;;;;14.00;9.90;;;19.50;99.90;;;;;;5069247;28;20207;-74
2022/06/08 00:11:09;;;;;;;10.40;9.30;;;19.80;99.90;;;;;;5075596;28;20228;-74
2022/06/08 00:13:57;;;;;;;10.93;9.82;;;19.70;99.90;;;;;;5062409;28;20302;-74
2022/06/08 00:16:46;;;;;;;11.55;9.38;;;19.70;99.90;;;;;;5065946;28;20223;-74
2022/06/08 00:19:35;;;;;;;11.18;10.07;;;19.40;99.90;;;;;;5060898;28;20223;-72
2022/06/08 00:22:23;;;;;;;12.13;10.38;;;19.30;99.90;;;;;;5075242;28;20215;-73
2022/06/08 00:25:13;;;;;;;10.43;9.35;;;19.20;99.90;;;;;;5049491;28;20216;-74
2022/06/08 00:28:03;;;;;;;11.50;10.38;;;19.10;99.90;;;;;;5040041;28;20532;-73
2022/06/08 00:30:52;;;;;;;11.85;10.30;;;19.10;99.90;;;;;;5075329;28;20235;-74
2022/06/08 00:33:42;;;;;;;12.40;10.43;;;19.10;99.90;;;;;;5071708;28;20227;-73
2022/06/08 00:36:30;;;;;;;11.85;10.52;;;19.30;99.90;;;;;;5040997;28;20228;-75
2022/06/08 00:39:19;;;;;;;12.13;11.07;;;19.30;99.90;;;;;;5053950;28;20228;-74
2022/06/08 00:42:10;;;;;;;12.70;11.40;;;19.30;99.90;;;;;;5049376;28;20234;-75
2022/06/08 00:45:05;;;;;;;12.18;11.07;;;19.30;99.90;;;;;;5059377;28;20812;-74
2022/06/08 00:47:59;;;;;;;13.68;12.30;;;19.30;99.90;;;;;;5061652;28;20231;-73
2022/06/08 00:50:51;;;;;;;13.43;12.23;;;19.30;99.90;;;;;;5054762;28;22816;-73
2022/06/08 00:53:44;;;;;;;15.05;13.55;;;19.10;99.90;;;;;;5047182;28;20228;-74
2022/06/08 00:56:37;;;;;;;14.30;12.90;;;19.10;99.90;;;;;;5063257;28;20216;-74
2022/06/08 00:59:26;;;;;;;14.85;13.35;;;19.20;99.90;;;;;;5054639;28;20315;-74
2022/06/08 01:02:17;;;;;;;16.58;14.95;;;19.20;99.90;;;;;;5054904;28;20225;-74
2022/06/08 01:05:18;;;;;;;16.90;15.05;;;19.30;99.90;;;;;;5054368;28;20283;-76
2022/06/08 01:08:23;;;;;;;18.75;16.88;;;19.30;99.90;;;;;;5052108;28;20748;-75
2022/06/08 01:11:25;;;;;;;18.20;16.40;;;19.30;99.90;;;;;;5047145;28;20717;-75
2022/06/08 01:14:19;;;;;;;20.45;18.35;;;19.30;99.90;;;;;;5050977;28;20223;-72
2022/06/08 01:17:12;;;;;;;20.85;18.73;;;19.30;99.90;;;;;;5039632;28;20221;-73
2022/06/08 01:20:05;;;;;;;20.58;18.50;;;19.30;99.90;;;;;;5041937;28;20254;-75
2022/06/08 01:22:57;;;;;;;20.33;18.20;;;19.30;99.90;;;;;;5058948;28;20221;-75
2022/06/08 01:26:04;;;;;;;21.45;19.35;;;19.40;99.90;;;;;;5062868;28;20235;-74
2022/06/08 01:29:01;;;;;;;21.00;18.90;;;19.50;99.90;;;;;;5059250;28;20309;-75
2022/06/08 01:32:02;;;;;;;20.33;18.30;;;19.50;99.90;;;;;;5062474;28;20746;-76
2022/06/08 01:35:07;;;;;;;20.48;18.38;;;19.50;99.90;;;;;;5056553;28;20865;-73
2022/06/08 01:38:08;;;;;;;20.67;18.27;;;19.50;99.90;;;;;;5070998;28;20994;-74
2022/06/08 01:41:21;;;;;;;20.35;18.25;;;19.50;99.90;;;;;;5070972;28;20888;-74
2022/06/08 01:44:29;;;;;;;19.85;17.75;;;19.50;99.90;;;;;;5068571;28;20303;-74
2022/06/08 01:47:34;;;;;;;21.50;17.88;;;19.40;99.90;;;;;;5079265;28;20327;-74
2022/06/08 01:50:56;;;;;;;19.77;17.77;;;19.40;99.90;;;;;;5066483;28;20243;-74
2022/06/08 01:54:06;;;;;;;20.73;18.55;;;19.40;99.90;;;;;;5073080;28;20231;-74
2022/06/08 01:57:08;;;;;;;20.45;18.17;;;19.40;99.90;;;;;;5059902;28;20244;-74
2022/06/08 02:00:05;;;;;;;19.45;17.45;;;19.30;99.90;;;;;;5053838;28;20224;-74
2022/06/08 02:03:16;;;;;;;18.98;16.98;;;19.10;99.90;;;;;;5046704;28;20277;-75
2022/06/08 02:06:09;;;;;;;21.55;18.92;;;18.90;99.90;;;;;;5056485;28;20231;-73
2022/06/08 02:09:06;;;;;;;22.25;19.85;;;19.00;99.90;;;;;;5056058;28;20287;-72
2022/06/08 02:12:00;;;;;;;20.63;18.30;;;19.00;99.90;;;;;;5070339;28;20220;-73
2022/06/08 02:15:01;;;;;;;20.05;18.05;;;19.10;99.90;;;;;;5069438;28;20218;-73
2022/06/08 02:17:56;;;;;;;21.17;19.00;;;19.10;99.90;;;;;;5053666;28;20228;-74
2022/06/08 02:21:07;;;;;;;20.90;18.73;;;19.20;99.90;;;;;;5088418;28;20619;-72
2022/06/08 02:24:01;;;;;;;21.02;18.83;;;19.20;99.90;;;;;;5061569;28;20223;-72
2022/06/08 02:26:56;;;;;;;20.58;18.40;;;19.10;99.90;;;;;;5074250;28;20328;-73
2022/06/08 02:29:50;;;;;;;21.77;19.50;;;19.10;99.90;;;;;;5071380;28;20228;-73
2022/06/08 02:35:52;;;;;;;21.10;18.95;;;19.20;99.90;;;;;;5077659;28;20216;-74
2022/06/08 02:38:49;;;;;;;21.60;19.30;;;19.20;99.90;;;;;;5067176;28;20729;-74
2022/06/08 02:41:41;;;;;;;20.33;18.30;;;19.10;99.90;;;;;;5061526;28;20224;-73
2022/06/08 02:44:33;;;;;;;22.45;18.55;;;19.10;99.90;;;;;;5071315;28;20809;-75
2022/06/08 02:47:29;;;;;;;19.50;17.45;;;19.10;99.90;;;;;;5073492;28;20952;-72
2022/06/08 02:50:26;;;;;;;20.25;18.05;;;19.10;99.90;;;;;;5076912;28;20314;-72
2022/06/08 02:53:43;;;;;;;21.05;17.67;;;19.10;99.90;;;;;;5070352;28;20228;-73
2022/06/08 02:56:49;;;;;;;19.75;17.60;;;19.00;99.90;;;;;;5069836;28;21061;-73
2022/06/08 02:59:51;;;;;;;20.20;18.13;;;19.00;99.90;;;;;;5068320;28;20568;-72
2022/06/08 03:02:49;;;;;;;19.45;17.45;;;19.00;99.90;;;;;;5073749;28;20238;-73
2022/06/08 03:05:42;;;;;;;21.15;18.95;;;18.90;99.90;;;;;;5065292;28;20241;-74
2022/06/08 03:08:34;;;;;;;20.70;18.05;;;18.80;99.90;;;;;;5078158;28;20253;-73
2022/06/08 03:11:25;;;;;;;20.73;18.67;;;18.80;99.90;;;;;;5061902;28;20227;-72
2022/06/08 03:14:16;;;;;;;22.58;20.27;;;18.80;99.90;;;;;;5063068;28;20220;-73
2022/06/08 03:17:10;;;;;;;21.33;19.17;;;18.90;99.90;;;;;;5075760;28;20224;-72
2022/06/08 03:20:05;;;;;;;20.63;18.52;;;18.80;99.90;;;;;;5071619;28;20606;-73
2022/06/08 03:22:55;;;;;;;23.10;20.35;;;18.80;99.90;;;;;;5071923;28;20231;-75
2022/06/08 03:25:50;;;;;;;22.77;20.38;;;18.70;99.90;;;;;;5075235;28;20219;-73
2022/06/08 03:28:39;;;;;;;23.65;20.75;;;18.80;99.90;;;;;;5052363;28;20342;-73
2022/06/08 03:31:28;;;;;;;25.58;22.75;;;18.80;99.90;;;;;;5053601;28;20297;-74
2022/06/08 03:34:19;;;;;;;25.63;22.92;;;18.80;99.90;;;;;;5054231;28;20237;-73
2022/06/08 03:37:12;;;;;;;25.77;23.17;;;18.90;99.90;;;;;;5059841;28;20227;-73
2022/06/08 03:40:07;;;;;;;24.98;22.40;;;18.90;99.90;;;;;;5059432;28;20702;-75
2022/06/08 03:42:56;;;;;;;26.13;23.42;;;19.10;99.90;;;;;;5064234;28;20212;-74
2022/06/08 03:45:49;;;;;;;23.60;21.17;;;19.10;99.90;;;;;;5056485;28;20307;-74
2022/06/08 03:48:38;;;;;;;22.88;20.55;;;18.70;99.90;;;;;;5063236;28;20670;-73
2022/06/08 03:51:28;;;;;;;23.35;20.73;;;19.00;99.90;;;;;;5055629;28;20234;-74
2022/06/08 03:54:20;;;;;;;21.10;18.98;;;19.00;99.90;;;;;;5056712;28;20226;-75
2022/06/08 03:57:12;;;;;;;25.77;20.77;;;19.20;99.90;;;;;;5059417;28;20262;-76
2022/06/08 04:00:02;;;;;;;22.48;19.10;;;19.40;99.90;;;;;;5048548;28;20220;-75
2022/06/08 04:02:53;;;;;;;17.33;15.57;;;19.50;99.90;;;;;;5061712;28;20216;-75
2022/06/08 04:05:49;;;;;;;18.60;16.60;;;19.30;99.90;;;;;;5049900;28;20243;-75
2022/06/08 04:08:44;;;;;;;16.25;14.55;;;19.50;99.90;;;;;;5051370;28;20228;-74
2022/06/08 04:11:33;;;;;;;15.13;13.50;;;19.40;99.90;;;;;;5065132;28;20220;-74
2022/06/08 04:14:22;;;;;;;14.65;13.07;;;19.50;99.90;;;;;;5059411;28;20730;-74
2022/06/08 04:17:11;;;;;;;13.45;12.05;;;19.60;99.90;;;;;;5059953;28;20598;-75
2022/06/08 04:20:00;;;;;;;13.90;12.40;;;19.70;99.90;;;;;;5056723;28;20235;-75
2022/06/08 04:22:49;;;;;;;14.20;11.82;;;19.70;99.90;;;;;;5062372;28;20227;-76
2022/06/08 04:25:42;;;;;;;13.45;12.05;;;19.90;99.90;;;;;;5061761;28;20742;-75
2022/06/08 04:28:36;;;;;;;15.13;12.73;;;19.90;99.90;;;;;;5070827;28;20228;-75
2022/06/08 04:31:32;;;;;;;13.45;12.15;;;19.90;99.90;;;;;;5057419;28;20310;-75
2022/06/08 04:34:29;;;;;;;11.88;10.68;;;20.00;99.90;;;;;;5038981;28;20275;-76
2022/06/08 04:37:19;;;;;;;11.88;10.68;;;20.00;99.90;;;;;;5034661;28;20217;-76
2022/06/08 04:40:15;;;;;;;14.35;10.90;;;20.00;99.90;;;;;;5038447;28;20727;-75
2022/06/08 04:43:12;;;;;;;11.50;10.38;;;20.00;99.90;;;;;;5051094;28;20220;-77
2022/06/08 04:46:02;;;;;;;11.02;9.90;;;20.00;99.90;;;;;;5040006;28;20208;-75
2022/06/08 04:48:54;;;;;;;11.98;10.68;;;19.90;99.90;;;;;;5054821;28;20229;-75
2022/06/08 04:51:46;;;;;;;11.27;10.13;;;19.90;99.90;;;;;;5053755;28;20273;-72
2022/06/08 04:54:36;;;;;;;11.95;10.75;;;19.90;99.90;;;;;;5038276;28;20231;-74
2022/06/08 04:57:34;;;;;;;11.75;10.52;;;19.90;99.90;;;;;;5032819;28;20255;-73
2022/06/08 05:00:26;;;;;;;12.57;10.45;;;20.00;99.90;;;;;;5051817;28;20216;-73
2022/06/08 05:03:15;;;;;;;12.65;11.35;;;20.00;99.90;;;;;;5050597;28;20220;-75
2022/06/08 05:06:04;;;;;;;12.60;11.40;;;20.30;99.90;;;;;;5050491;28;20217;-75
2022/06/08 05:08:55;;;;;;;14.10;11.40;;;20.30;99.90;;;;;;5037171;28;20228;-75
2022/06/08 05:11:46;;;;;;;11.52;10.38;;;20.20;99.90;;;;;;5037627;28;20530;-74
2022/06/08 05:14:36;;;;;;;12.23;9.77;;;20.20;99.90;;;;;;5035327;28;20235;-73
2022/06/08 05:17:33;;;;;;;10.43;9.43;;;20.30;99.90;;;;;;5040956;28;20232;-74
2022/06/08 05:20:24;;;;;;;9.77;8.73;;;20.40;99.90;;;;;;5040454;28;20217;-74
2022/06/08 05:23:17;;;;;;;10.52;9.25;;;20.40;99.90;;;;;;5044058;28;20212;-74
2022/06/08 05:26:08;;;;;;;11.07;9.15;;;20.40;99.90;;;;;;5042380;28;20322;-75
2022/06/08 05:28:58;;;;;;;11.43;9.60;;;20.30;99.90;;;;;;5046692;28;20236;-75
2022/06/08 05:31:52;;;;;;;12.95;10.00;;;20.20;99.90;;;;;;5059471;28;20290;-76
2022/06/08 05:34:43;;;;;;;14.30;9.93;;;20.20;99.90;;;;;;5033640;28;20236;-75
2022/06/08 05:37:34;;;;;;;10.63;9.20;;;20.30;99.90;;;;;;5058235;28;20216;-75
2022/06/08 05:40:24;;;;;;;10.15;9.15;;;20.40;99.90;;;;;;5042958;28;20309;-76
2022/06/08 05:43:16;;;;;;;12.73;9.38;;;20.50;99.90;;;;;;5046636;28;20220;-74
2022/06/08 05:46:10;;;;;;;11.15;10.00;;;20.60;99.90;;;;;;5063548;28;20757;-73
2022/06/08 05:49:02;;;;;;;10.75;9.52;;;20.70;99.90;;;;;;5044848;28;20235;-73
2022/06/08 05:51:55;;;;;;;12.18;9.40;;;20.90;99.90;;;;;;5054243;28;20220;-76
2022/06/08 05:54:47;;;;;;;11.10;9.32;;;21.30;99.90;;;;;;5045133;28;20228;-77
2022/06/08 05:57:37;;;;;;;10.98;9.88;;;21.60;99.90;;;;;;5040805;28;20311;-76
2022/06/08 06:00:28;;;;;;;11.68;8.90;;;21.80;99.90;;;;;;5036661;28;20231;-76
2022/06/08 06:03:17;;;;;;;11.20;9.23;;;21.70;99.90;;;;;;5041924;28;20765;-78
2022/06/08 06:06:06;;;;;;;10.43;9.43;;;21.50;99.90;;;;;;5035631;28;20217;-83
2022/06/08 06:08:57;;;;;;;11.98;8.52;;;21.50;99.90;;;;;;5044499;28;20465;-79
2022/06/08 06:11:46;;;;;;;10.90;8.35;;;21.50;99.90;;;;;;5038594;28;20258;-74
2022/06/08 06:14:37;;;;;;;9.88;7.85;;;21.50;99.90;;;;;;5038777;28;20221;-73
2022/06/08 06:30:58;;;;;;;11.45;6.82;;;21.50;99.90;;;;;;4959179;27;20665;-73
2022/06/08 06:34:01;;;;;;;7.88;7.07;;;21.40;99.90;;;;;;4968875;28;20219;-72
2022/06/08 06:36:52;;;;;;;8.95;6.97;;;21.30;99.90;;;;;;4971699;28;20355;-73
2022/06/08 06:39:41;;;;;;;9.50;6.85;;;21.30;99.90;;;;;;4992281;28;20219;-72
2022/06/08 06:42:44;;;;;;;6.60;5.07;;;21.30;99.90;;;;;;4980311;28;20230;-73
2022/06/08 06:46:03;;;;;;;6.80;6.10;;;21.20;99.90;;;;;;4929404;28;20247;-72
2022/06/08 06:49:03;;;;;;;9.63;6.22;;;21.30;99.90;;;;;;4963677;28;20598;-73
2022/06/08 06:51:54;;;;;;;7.18;6.38;;;21.20;99.90;;;;;;4957709;28;20219;-73
2022/06/08 06:54:45;;;;;;;9.43;6.72;;;21.20;99.90;;;;;;4976683;28;20242;-73
2022/06/08 06:57:33;;;;;;;12.27;8.15;;;21.00;99.90;;;;;;4986034;28;20220;-73
2022/06/08 07:00:23;;;;;;;9.13;8.23;;;21.00;99.90;;;;;;4960471;28;20234;-73
2022/06/08 07:03:13;;;;;;;10.57;8.13;;;21.10;99.90;;;;;;4960930;28;20228;-72
2022/06/08 07:06:05;;;;;;;11.57;7.97;;;21.10;99.90;;;;;;4975647;28;20228;-73
2022/06/08 07:08:54;;;;;;;12.13;8.05;;;21.00;99.90;;;;;;4970048;28;20242;-73
2022/06/08 07:11:50;;;;;;;10.45;7.43;;;21.00;99.90;;;;;;4966908;28;20678;-73
2022/06/08 07:14:45;;;;;;;8.73;6.68;;;21.00;99.90;;;;;;4961416;28;20236;-73
2022/06/08 07:17:39;;;;;;;8.20;7.28;;;21.10;99.90;;;;;;4996053;28;20250;-73
2022/06/08 07:20:31;;;;;;;12.25;6.38;;;21.20;99.90;;;;;;4974386;28;20273;-74
2022/06/08 07:23:19;;;;;;;7.22;5.10;;;21.20;99.90;;;;;;4986214;28;20215;-74
2022/06/08 07:26:08;;;;;;;4.32;3.92;;;21.40;99.90;;;;;;4979848;28;20230;-74
2022/06/08 07:28:57;;;;;;;7.45;3.88;;;21.30;99.90;;;;;;4989530;28;20376;-74
2022/06/08 07:31:46;;;;;;;6.03;3.50;;;21.70;99.90;;;;;;4989090;28;20237;-73
2022/06/08 07:34:35;;;;;;;4.57;3.97;;;22.00;99.90;;;;;;4991224;28;20228;-74
2022/06/08 07:37:25;;;;;;;12.00;4.30;;;22.10;99.90;;;;;;4956340;28;20243;-74
2022/06/08 07:40:13;;;;;;;4.45;3.83;;;22.20;99.90;;;;;;4966088;28;20219;-73
2022/06/08 07:43:02;;;;;;;4.13;3.72;;;22.20;99.90;;;;;;4941164;28;20220;-74
2022/06/08 07:45:51;;;;;;;5.57;3.70;;;22.10;99.90;;;;;;4943229;28;20251;-81
2022/06/08 07:51:53;;;;;;;5.97;3.65;;;22.10;99.90;;;;;;4952455;28;20254;-74
2022/06/08 07:54:45;;;;;;;8.93;4.45;;;22.10;99.90;;;;;;4961634;28;20239;-73
2022/06/08 07:57:35;;;;;;;6.82;6.10;;;21.90;99.90;;;;;;4952879;28;20216;-73
2022/06/08 08:00:24;;;;;;;6.90;5.55;;;21.90;99.90;;;;;;4952623;28;20249;-74
2022/06/08 08:03:13;;;;;;;9.45;6.00;;;22.10;99.90;;;;;;4939795;28;20335;-74
2022/06/08 08:06:02;;;;;;;8.50;6.40;;;22.10;99.90;;;;;;4945617;28;20327;-74
2022/06/08 08:08:50;;;;;;;8.18;6.93;;;22.00;99.90;;;;;;4935713;28;20220;-73
2022/06/08 08:11:40;;;;;;;8.10;7.22;;;22.10;99.90;;;;;;4940472;28;20236;-74
2022/06/08 08:14:33;;;;;;;9.30;6.80;;;22.40;99.90;;;;;;4946106;28;20228;-74
2022/06/08 08:17:22;;;;;;;8.30;7.50;;;22.50;99.90;;;;;;4962404;28;20257;-73
2022/06/08 08:20:15;;;;;;;8.90;7.22;;;22.80;99.90;;;;;;4962612;28;20251;-74
2022/06/08 08:23:05;;;;;;;10.18;6.78;;;23.00;99.90;;;;;;4963543;28;20227;-74
2022/06/08 08:25:53;;;;;;;8.75;7.28;;;23.20;99.90;;;;;;4955202;28;20231;-74
2022/06/08 08:28:43;;;;;;;8.18;7.28;;;23.20;99.90;;;;;;4973514;28;20227;-74
2022/06/08 08:31:32;;;;;;;8.50;6.75;;;23.40;99.90;;;;;;4965855;28;20698;-74
2022/06/08 08:34:21;;;;;;;9.75;7.03;;;23.50;99.90;;;;;;4960239;28;20247;-73
2022/06/08 08:37:10;;;;;;;9.57;8.27;;;23.90;99.90;;;;;;4956623;28;20243;-73
2022/06/08 08:39:59;;;;;;;8.38;7.55;;;24.10;99.90;;;;;;4969645;28;20223;-72
2022/06/08 08:42:47;;;;;;;10.95;8.27;;;24.30;99.90;;;;;;4959937;28;20223;-73
2022/06/08 08:45:47;;;;;;;11.57;8.70;;;24.50;99.90;;;;;;4957529;28;20224;-73
2022/06/08 08:48:44;;;;;;;10.93;8.85;;;24.40;99.90;;;;;;4942853;28;20225;-72
2022/06/08 08:51:41;;;;;;;9.68;8.60;;;25.50;99.90;;;;;;4962509;28;20224;-73
2022/06/08 08:54:34;;;;;;;9.20;8.30;;;24.90;99.90;;;;;;4943590;28;20228;-73
2022/06/08 08:57:31;;;;;;;10.48;8.77;;;24.20;99.90;;;;;;4946055;28;20227;-73
2022/06/08 09:00:27;;;;;;;11.90;8.98;;;24.60;99.90;;;;;;4957360;28;20239;-73
2022/06/08 09:03:34;;;;;;;9.30;8.32;;;24.80;99.90;;;;;;4975056;28;20226;-73
2022/06/08 09:06:25;;;;;;;10.02;9.13;;;24.90;99.90;;;;;;4963178;28;20215;-73
2022/06/08 09:09:24;;;;;;;10.90;9.73;;;25.00;99.90;;;;;;4971026;28;20219;-72
2022/06/08 09:12:14;;;;;;;11.82;9.65;;;24.70;99.90;;;;;;4960626;28;20247;-74
2022/06/08 09:15:16;;;;;;;11.20;10.00;;;24.50;99.90;;;;;;4957308;28;20222;-73
2022/06/08 09:18:05;;;;;;;11.55;9.40;;;24.40;99.90;;;;;;4965183;28;20221;-73
2022/06/08 09:20:55;;;;;;;11.23;9.25;;;24.10;99.90;;;;;;4960363;28;20237;-73
2022/06/08 09:23:44;;;;;;;10.68;9.60;;;24.10;99.90;;;;;;4959458;28;20227;-73
2022/06/08 09:26:39;;;;;;;10.23;9.00;;;24.60;99.90;;;;;;4937463;28;20228;-72
2022/06/08 09:29:29;;;;;;;14.07;11.10;;;24.50;99.90;;;;;;4969646;28;20232;-74
2022/06/08 09:32:29;;;;;;;11.00;9.88;;;24.40;99.90;;;;;;4967915;28;20781;-73
2022/06/08 09:35:22;;;;;;;12.55;10.80;;;24.50;99.90;;;;;;4954745;28;20713;-73
2022/06/08 09:38:14;;;;;;;10.02;9.13;;;24.90;99.90;;;;;;4981165;28;20322;-73
2022/06/08 09:41:14;;;;;;;11.48;9.50;;;24.90;99.90;;;;;;4947781;28;20225;-73
2022/06/08 09:44:27;;;;;;;15.13;10.57;;;25.00;99.90;;;;;;4961172;28;20298;-74
2022/06/08 09:53:57;;;;;;;13.27;9.90;;;25.80;99.90;;;;;;4939289;28;20228;-74
2022/06/08 09:57:02;;;;;;;11.02;9.70;;;26.20;99.90;;;;;;4966646;28;20399;-73
2022/06/08 10:00:03;;;;;;;12.88;10.27;;;27.70;99.90;;;;;;4943050;28;20320;-74
2022/06/08 10:03:21;;;;;;;12.60;9.95;;;28.50;99.90;;;;;;4947425;28;20224;-75
2022/06/08 10:06:26;;;;;;;15.15;9.95;;;27.50;99.90;;;;;;4943611;28;20947;-74
2022/06/08 10:09:25;;;;;;;11.05;9.93;;;26.90;99.90;;;;;;4965154;28;20306;-74
2022/06/08 10:12:26;;;;;;;10.68;9.65;;;27.00;99.90;;;;;;4966195;28;20235;-74
2022/06/08 10:15:24;;;;;;;11.00;9.90;;;27.10;99.90;;;;;;4958996;28;20219;-74
2022/06/08 10:18:20;;;;;;;10.30;9.20;;;27.10;99.90;;;;;;4962181;28;20287;-73
2022/06/08 10:21:14;;;;;;;11.23;10.18;;;26.80;99.90;;;;;;4951938;28;20224;-74
2022/06/08 10:24:12;;;;;;;10.80;9.82;;;26.40;99.90;;;;;;4941921;28;20595;-75
2022/06/08 10:27:11;;;;;;;11.82;9.88;;;25.90;99.90;;;;;;4970451;28;20702;-76
2022/06/08 10:30:08;;;;;;;11.88;9.85;;;25.20;99.90;;;;;;4954340;28;20238;-76
2022/06/08 10:33:04;;;;;;;11.07;9.93;;;25.00;99.90;;;;;;4969983;28;20262;-77
2022/06/08 10:35:57;;;;;;;11.35;9.68;;;25.60;99.90;;;;;;4951319;28;20232;-76
2022/06/08 10:38:46;;;;;;;11.00;9.75;;;25.30;99.90;;;;;;4957675;28;20231;-76
2022/06/08 10:45:00;;;;;;;11.25;10.15;;;25.50;99.90;;;;;;4876792;28;20234;-76
2022/06/08 10:47:56;;;;;;;12.05;10.55;;;25.90;99.90;;;;;;4957724;28;20311;-76
2022/06/08 10:50:48;;;;;;;11.20;9.50;;;25.90;99.90;;;;;;4961660;28;20350;-77
2022/06/08 10:57:33;;;;;;;11.30;9.25;;;25.80;99.90;;;;;;4933320;28;20224;-77
2022/06/08 11:00:48;;;;;;;11.20;10.00;;;27.90;99.90;;;;;;4946654;28;20802;-77
2022/06/08 11:03:56;;;;;;;10.75;9.45;;;28.50;99.90;;;;;;4959088;28;20232;-77
2022/06/08 11:06:59;;;;;;;12.95;10.32;;;27.60;99.90;;;;;;5023375;28;20229;-77
2022/06/08 11:10:05;;;;;;;10.70;9.68;;;27.40;99.90;;;;;;4970082;28;20737;-77
2022/06/08 11:13:13;;;;;;;9.88;8.98;;;27.40;99.90;;;;;;4942451;28;20611;-77
2022/06/08 11:16:11;;;;;;;12.70;9.73;;;27.70;99.90;;;;;;4945545;28;20286;-75
2022/06/08 11:19:05;;;;;;;10.00;9.05;;;29.20;99.90;;;;;;4954903;28;20265;-75
2022/06/08 11:21:58;;;;;;;10.50;9.45;;;30.20;98.90;;;;;;4970277;28;20261;-75
2022/06/08 11:24:50;;;;;;;10.57;9.50;;;30.30;95.60;;;;;;4966050;28;20227;-74
2022/06/08 11:27:40;;;;;;;9.85;8.95;;;28.10;98.70;;;;;;4968815;28;20590;-74
2022/06/08 11:30:50;;;;;;;13.70;10.38;;;27.80;99.90;;;;;;4965921;28;20255;-74
2022/06/08 11:34:08;;;;;;;11.98;9.57;;;28.20;99.90;;;;;;4968357;28;20234;-74
2022/06/08 11:37:19;;;;;;;10.35;8.95;;;28.20;99.90;;;;;;4977171;28;20292;-74
2022/06/08 11:40:16;;;;;;;10.02;9.02;;;27.30;99.90;;;;;;4959753;28;20212;-75
2022/06/08 11:43:27;;;;;;;10.45;8.52;;;27.30;99.90;;;;;;4949537;28;20236;-77
2022/06/08 11:46:24;;;;;;;9.25;7.97;;;27.10;99.90;;;;;;4969452;28;20223;-77
2022/06/08 11:49:32;;;;;;;9.80;7.68;;;27.10;99.90;;;;;;4971401;28;20243;-78
2022/06/08 11:52:33;;;;;;;11.23;10.13;;;27.50;99.90;;;;;;4952706;28;20230;-75
2022/06/08 11:55:24;;;;;;;10.07;6.70;;;28.60;99.90;;;;;;4958351;28;20227;-76
2022/06/08 11:58:20;;;;;;;12.70;6.90;;;29.30;98.20;;;;;;4942016;28;20224;-76
2022/06/08 12:01:19;;;;;;;9.07;7.22;;;29.10;95.20;;;;;;4943874;28;20231;-76
2022/06/08 12:04:13;;;;;;;7.70;6.90;;;28.40;97.10;;;;;;4945931;28;20628;-76
2022/06/08 12:07:03;;;;;;;8.07;7.28;;;27.60;98.20;;;;;;4963105;28;20227;-76
2022/06/08 12:09:52;;;;;;;10.40;6.80;;;26.90;99.90;;;;;;4971669;28;20228;-77
2022/06/08 12:12:43;;;;;;;10.45;7.38;;;27.00;99.90;;;;;;4963101;28;20231;-76
2022/06/08 12:15:48;;;;;;;9.93;7.47;;;26.50;99.90;;;;;;4964007;28;20592;-77
2022/06/08 12:18:43;;;;;;;11.32;7.85;;;25.80;99.90;;;;;;4969564;28;20538;-77
2022/06/08 12:21:36;;;;;;;11.43;8.25;;;25.40;99.90;;;;;;4960257;28;20270;-76
2022/06/08 12:24:26;;;;;;;8.60;7.82;;;25.10;99.90;;;;;;4948893;28;20216;-77
2022/06/08 12:27:21;;;;;;;8.70;7.55;;;24.80;99.90;;;;;;4965383;28;20227;-76
2022/06/08 12:30:21;;;;;;;11.13;7.82;;;24.80;99.90;;;;;;4963128;28;20366;-75
2022/06/08 12:33:24;;;;;;;10.60;7.90;;;24.90;99.90;;;;;;4962125;28;20223;-76
2022/06/08 12:36:21;;;;;;;10.75;7.88;;;25.00;99.90;;;;;;4985343;28;20238;-76
2022/06/08 12:39:14;;;;;;;11.57;9.40;;;24.90;99.90;;;;;;4959195;28;20877;-75
2022/06/08 12:42:25;;;;;;;8.43;7.57;;;24.70;99.90;;;;;;4957223;28;20232;-77
2022/06/08 12:45:26;;;;;;;8.30;7.50;;;24.60;99.90;;;;;;4952170;28;20702;-76
2022/06/08 12:48:27;;;;;;;12.48;8.48;;;24.60;99.90;;;;;;4959731;28;20289;-76
2022/06/08 12:51:24;;;;;;;12.50;8.40;;;24.50;99.90;;;;;;4951475;28;20221;-76
2022/06/08 12:54:18;;;;;;;9.38;7.50;;;24.60;99.90;;;;;;4958586;28;20312;-75
2022/06/08 12:57:17;;;;;;;10.85;8.43;;;24.70;99.90;;;;;;4948930;28;20220;-76
2022/06/08 13:00:08;;;;;;;9.18;8.27;;;24.60;99.90;;;;;;4951719;28;20257;-75
2022/06/08 13:02:59;;;;;;;10.48;9.48;;;24.40;99.90;;;;;;4953015;28;20232;-75
2022/06/08 13:05:48;;;;;;;12.20;10.02;;;24.50;99.90;;;;;;4943989;28;20231;-76
2022/06/08 13:08:39;;;;;;;14.68;10.00;;;24.50;99.90;;;;;;4945385;28;20325;-75
2022/06/08 13:11:29;;;;;;;11.70;10.48;;;24.60;99.90;;;;;;4946968;28;20359;-76
2022/06/08 13:14:20;;;;;;;13.07;10.35;;;24.60;99.90;;;;;;4944585;28;20264;-75
2022/06/08 13:17:12;;;;;;;12.57;10.32;;;24.40;99.90;;;;;;4939437;28;20590;-76
2022/06/08 13:20:01;;;;;;;12.10;10.90;;;24.70;99.90;;;;;;4950209;28;20270;-75
2022/06/08 13:22:50;;;;;;;14.13;12.63;;;24.50;99.90;;;;;;4975741;28;20227;-75
2022/06/08 13:35:36;;;;;;;15.35;11.90;;;24.10;99.90;;;;;;4966877;28;1369005;-76
2022/06/08 16:45:07;;;;;;;19.07;16.07;;;21.40;99.90;;;;;;5000484;27;2105254;-76
2022/06/08 16:48:00;;;;;;;19.88;16.90;;;21.40;99.90;;;;;;5058400;28;20470;-77
2022/06/08 16:50:50;;;;;;;16.70;15.23;;;21.20;99.90;;;;;;5036278;28;20228;-76
2022/06/08 16:53:40;;;;;;;15.98;14.57;;;21.10;99.90;;;;;;5054055;28;20220;-77
2022/06/08 16:59:38;;;;;;;16.23;14.75;;;21.20;99.90;;;;;;5059211;28;20318;-78
2022/06/08 17:02:28;;;;;;;17.75;16.05;;;21.30;99.90;;;;;;5068542;28;20231;-77
2022/06/08 17:05:16;;;;;;;17.65;15.95;;;21.40;99.90;;;;;;5057193;28;20228;-77
2022/06/08 17:08:06;;;;;;;17.17;15.40;;;21.30;99.90;;;;;;5057821;28;20327;-77
2022/06/08 17:14:01;;;;;;;17.98;15.98;;;21.40;99.90;;;;;;5067417;28;20235;-78
2022/06/08 17:16:51;;;;;;;16.70;15.10;;;21.30;99.90;;;;;;5059049;28;20721;-77
2022/06/08 17:19:41;;;;;;;16.15;14.65;;;21.30;99.90;;;;;;5057094;28;20319;-77
2022/06/08 17:22:30;;;;;;;16.40;14.70;;;21.30;99.90;;;;;;5059209;28;20220;-79
2022/06/08 17:25:20;;;;;;;16.98;15.52;;;21.30;99.90;;;;;;5053644;28;20217;-78
2022/06/08 17:28:09;;;;;;;16.95;15.35;;;21.30;99.90;;;;;;5053882;28;20262;-77
2022/06/08 17:30:57;;;;;;;17.73;16.25;;;21.10;99.90;;;;;;5061460;28;20228;-77
2022/06/08 17:33:47;;;;;;;18.85;16.85;;;21.10;99.90;;;;;;5063244;28;20431;-77
2022/06/08 17:36:37;;;;;;;17.00;15.50;;;21.10;99.90;;;;;;5076877;28;20223;-77
2022/06/08 17:39:26;;;;;;;17.00;15.40;;;21.10;99.90;;;;;;5074668;28;20238;-77
2022/06/08 17:42:25;;;;;;;14.00;12.70;;;21.00;99.90;;;;;;5072551;28;20223;-80
2022/06/08 17:45:15;;;;;;;14.15;12.80;;;21.00;99.90;;;;;;5075861;28;20228;-78
2022/06/08 17:48:07;;;;;;;13.57;12.30;;;21.00;99.90;;;;;;5084488;28;20236;-80
2022/06/08 17:50:56;;;;;;;12.23;11.20;;;20.90;99.90;;;;;;5065023;28;20223;-82
2022/06/08 17:53:47;;;;;;;11.13;10.13;;;20.70;99.90;;;;;;5083460;28;20322;-81
2022/06/08 17:56:35;;;;;;;12.95;11.77;;;20.70;99.90;;;;;;5064959;28;20220;-81
2022/06/08 17:59:25;;;;;;;12.50;11.30;;;20.90;99.90;;;;;;5064069;28;20220;-81
2022/06/08 18:02:16;;;;;;;11.98;10.80;;;20.90;99.90;;;;;;5064428;28;20354;-82
2022/06/08 18:05:07;;;;;;;13.05;11.90;;;20.80;99.90;;;;;;5063025;28;20224;-82
2022/06/08 18:07:56;;;;;;;13.27;12.02;;;20.80;99.90;;;;;;5062491;28;20239;-80
2022/06/08 18:10:46;;;;;;;13.20;11.98;;;20.90;99.90;;;;;;5049858;28;20242;-80
2022/06/08 18:13:35;;;;;;;12.32;11.07;;;20.80;99.90;;;;;;5053991;28;20231;-80
2022/06/08 18:16:24;;;;;;;12.52;11.25;;;20.90;99.90;;;;;;5045569;28;20552;-81
2022/06/08 18:19:12;;;;;;;11.07;9.98;;;20.90;99.90;;;;;;5041567;28;20241;-80
2022/06/08 18:22:01;;;;;;;14.05;12.57;;;20.80;99.90;;;;;;5045037;28;20628;-80
2022/06/08 18:24:50;;;;;;;12.82;11.07;;;20.70;99.90;;;;;;5044614;28;20216;-80
2022/06/08 18:27:49;;;;;;;10.60;9.68;;;20.60;99.90;;;;;;5042732;28;20590;-80
2022/06/08 18:30:38;;;;;;;11.02;10.02;;;20.60;99.90;;;;;;5056139;28;20707;-80
2022/06/08 18:33:26;;;;;;;11.52;10.40;;;20.60;99.90;;;;;;5044464;28;20228;-82
2022/06/08 18:36:18;;;;;;;11.68;10.68;;;20.60;99.90;;;;;;5041486;28;20221;-87
2022/06/08 18:39:07;;;;;;;11.63;10.35;;;20.70;99.90;;;;;;5053790;28;20228;-77
2022/06/08 18:41:55;;;;;;;12.18;10.93;;;20.50;99.90;;;;;;5037471;28;20731;-77
2022/06/08 18:44:45;;;;;;;12.52;11.30;;;20.40;99.90;;;;;;5040031;28;20229;-84
2022/06/08 18:47:38;;;;;;;12.50;11.30;;;20.40;99.90;;;;;;5051487;28;20603;-83